createdAt,value
2018-06-30T00:01:33.670Z,35.81
2018-06-30T00:04:03.006Z,36.59
2018-06-30T00:06:32.216Z,36.13
2018-06-30T00:09:01.645Z,37.01
2018-06-30T00:11:31.140Z,35.45
2018-06-30T00:14:00.454Z,36.61
2018-06-30T00:16:29.762Z,36.42
2018-06-30T00:18:59.006Z,35.89
2018-06-30T00:21:28.343Z,35.98
2018-06-30T00:23:57.605Z,36.50
2018-06-30T00:26:27.270Z,35.37
2018-06-30T00:28:56.489Z,35.58
2018-06-30T00:31:25.770Z,37.16
2018-06-30T00:33:55.044Z,36.98
2018-06-30T00:36:24.385Z,39.20
2018-06-30T00:38:53.733Z,37.55
2018-06-30T00:41:22.963Z,37.70
2018-06-30T00:43:52.218Z,37.27
2018-06-30T00:46:21.554Z,38.22
2018-06-30T00:48:50.902Z,39.88
2018-06-30T00:51:20.098Z,40.44
2018-06-30T00:53:49.264Z,40.41
2018-06-30T00:56:18.725Z,40.07
2018-06-30T00:58:47.945Z,39.94
2018-06-30T01:01:17.153Z,39.64
2018-06-30T01:03:46.454Z,40.12
2018-06-30T01:06:15.745Z,40.24
2018-06-30T01:08:45.047Z,40.78
2018-06-30T01:11:14.436Z,41.35
2018-06-30T01:13:43.771Z,41.41
2018-06-30T01:16:13.134Z,40.68
2018-06-30T01:18:42.373Z,41.37
2018-06-30T01:21:11.618Z,41.13
2018-06-30T01:23:40.943Z,41.95
2018-06-30T01:26:10.110Z,41.98
2018-06-30T01:28:40.324Z,42.20
2018-06-30T01:31:09.657Z,42.40
2018-06-30T01:33:38.889Z,43.08
2018-06-30T01:36:08.496Z,42.60
2018-06-30T01:38:38.086Z,42.09
2018-06-30T01:41:07.262Z,42.25
2018-06-30T01:43:36.477Z,41.93
2018-06-30T01:46:05.736Z,41.37
2018-06-30T01:48:35.103Z,41.44
2018-06-30T01:51:04.334Z,41.73
2018-06-30T01:53:33.686Z,41.56
2018-06-30T01:56:02.954Z,41.59
2018-06-30T01:58:32.278Z,41.57
2018-06-30T02:01:01.534Z,41.91
2018-06-30T02:03:30.894Z,41.80
2018-06-30T02:06:00.192Z,41.38
2018-06-30T02:08:29.597Z,42.21
2018-06-30T02:10:58.891Z,42.39
2018-06-30T02:13:28.222Z,42.42
2018-06-30T02:15:57.587Z,42.90
2018-06-30T02:18:27.011Z,43.22
2018-06-30T02:20:56.265Z,44.73
2018-06-30T02:23:25.480Z,44.07
2018-06-30T02:25:54.707Z,43.76
2018-06-30T02:28:24.034Z,43.18
2018-06-30T02:30:53.325Z,41.40
2018-06-30T02:33:22.551Z,41.79
2018-06-30T02:35:51.803Z,41.63
2018-06-30T02:38:21.164Z,41.88
2018-06-30T02:40:50.500Z,42.28
2018-06-30T02:43:19.789Z,41.38
2018-06-30T02:45:49.029Z,41.87
2018-06-30T02:48:18.347Z,42.12
2018-06-30T02:50:47.622Z,42.49
2018-06-30T02:53:16.906Z,43.73
2018-06-30T02:55:46.309Z,43.90
2018-06-30T02:58:15.582Z,44.36
2018-06-30T03:00:44.910Z,44.22
2018-06-30T03:03:14.164Z,44.14
2018-06-30T03:05:43.402Z,43.77
2018-06-30T03:08:12.655Z,43.84
2018-06-30T03:10:41.936Z,43.50
2018-06-30T03:13:11.153Z,43.43
2018-06-30T03:15:40.393Z,43.65
2018-06-30T03:18:09.643Z,44.21
2018-06-30T03:20:38.891Z,43.84
2018-06-30T03:23:08.436Z,44.49
2018-06-30T03:25:37.763Z,44.30
2018-06-30T03:28:07.012Z,44.01
2018-06-30T03:30:36.313Z,44.36
2018-06-30T03:33:05.605Z,44.32
2018-06-30T03:35:35.029Z,43.79
2018-06-30T03:38:04.282Z,44.52
2018-06-30T03:40:33.830Z,44.15
2018-06-30T03:43:03.082Z,44.30
2018-06-30T03:45:32.322Z,44.29
2018-06-30T03:48:01.587Z,44.31
2018-06-30T03:50:30.821Z,44.38
2018-06-30T03:53:00.166Z,45.07
2018-06-30T03:55:29.424Z,45.39
2018-06-30T03:57:58.934Z,44.35
2018-06-30T04:00:28.190Z,44.55
2018-06-30T04:02:57.433Z,43.75
2018-06-30T04:05:26.665Z,44.49
2018-06-30T04:07:56.017Z,44.10
2018-06-30T04:10:25.323Z,43.69
2018-06-30T04:12:54.729Z,43.12
2018-06-30T04:15:24.005Z,43.99
2018-06-30T04:17:53.254Z,43.38
2018-06-30T04:20:22.490Z,43.01
2018-06-30T04:22:52.106Z,42.25
2018-06-30T04:25:21.468Z,43.01
2018-06-30T04:27:51.009Z,43.64
2018-06-30T04:30:20.373Z,42.51
2018-06-30T04:32:49.956Z,40.96
2018-06-30T04:35:19.501Z,41.43
2018-06-30T04:37:48.998Z,39.73
2018-06-30T04:40:18.404Z,40.09
2018-06-30T04:42:47.875Z,38.14
2018-06-30T04:45:17.367Z,39.83
2018-06-30T04:47:46.867Z,40.15
2018-06-30T04:50:16.343Z,38.95
2018-06-30T04:52:45.684Z,39.25
2018-06-30T04:55:14.884Z,37.79
2018-06-30T04:57:44.095Z,37.83
2018-06-30T05:00:13.450Z,36.50
2018-06-30T05:02:42.694Z,34.13
2018-06-30T05:05:12.064Z,31.74
2018-06-30T05:07:41.802Z,31.44
2018-06-30T05:10:11.302Z,31.41
2018-06-30T05:12:40.632Z,29.92
2018-06-30T05:15:09.934Z,31.85
2018-06-30T05:17:39.283Z,31.58
2018-06-30T05:20:08.519Z,31.59
2018-06-30T05:22:37.798Z,31.73
2018-06-30T05:25:06.998Z,30.19
2018-06-30T05:27:36.274Z,30.21
2018-06-30T05:30:05.720Z,30.15
2018-06-30T05:32:35.002Z,29.03
2018-06-30T05:35:04.310Z,27.89
2018-06-30T05:37:33.569Z,29.30
2018-06-30T05:40:02.939Z,28.54
2018-06-30T05:42:32.204Z,27.04
2018-06-30T05:45:01.516Z,25.46
2018-06-30T05:47:31.022Z,27.26
2018-06-30T05:50:00.438Z,27.20
2018-06-30T05:52:29.692Z,26.32
2018-06-30T05:54:59.006Z,23.74
2018-06-30T05:57:28.374Z,22.01
2018-06-30T05:59:57.647Z,20.33
2018-06-30T06:02:26.782Z,19.46
2018-06-30T06:04:56.143Z,16.99
2018-06-30T06:07:25.378Z,16.79
2018-06-30T06:09:54.886Z,17.01
2018-06-30T06:12:25.196Z,15.80
2018-06-30T06:14:54.874Z,15.20
2018-06-30T06:17:24.263Z,17.39
2018-06-30T06:19:53.565Z,16.98
2018-06-30T06:22:22.859Z,17.94
2018-06-30T06:24:52.134Z,18.64
2018-06-30T06:27:21.365Z,17.23
2018-06-30T06:29:50.623Z,15.18
2018-06-30T06:32:19.874Z,14.36
2018-06-30T06:34:49.285Z,13.89
2018-06-30T06:37:18.598Z,14.90
2018-06-30T06:39:47.882Z,13.91
2018-06-30T06:42:17.367Z,18.79
2018-06-30T06:44:46.663Z,16.37
2018-06-30T06:47:16.077Z,22.03
2018-06-30T06:49:45.355Z,22.15
2018-06-30T06:52:14.578Z,23.81
2018-06-30T06:54:44.194Z,21.05
2018-06-30T06:57:13.634Z,19.48
2018-06-30T06:59:42.907Z,24.18
2018-06-30T07:02:12.357Z,21.48
2018-06-30T07:04:41.765Z,25.43
2018-06-30T07:07:11.374Z,24.12
2018-06-30T07:09:40.789Z,29.30
2018-06-30T07:12:10.293Z,28.07
2018-06-30T07:14:39.582Z,29.95
2018-06-30T07:17:09.898Z,31.31
2018-06-30T07:19:39.309Z,31.50
2018-06-30T07:22:08.913Z,31.49
2018-06-30T07:24:38.231Z,32.90
2018-06-30T07:27:08.011Z,33.42
2018-06-30T07:29:37.321Z,33.98
2018-06-30T07:32:06.483Z,32.24
2018-06-30T07:34:35.736Z,34.67
2018-06-30T07:37:05.076Z,35.01
2018-06-30T07:39:34.445Z,34.82
2018-06-30T07:42:03.774Z,35.57
2018-06-30T07:44:33.099Z,36.08
2018-06-30T07:47:02.335Z,35.17
2018-06-30T07:49:31.570Z,35.51
2018-06-30T07:52:00.825Z,35.84
2018-06-30T07:54:30.090Z,36.02
2018-06-30T07:56:59.343Z,35.99
2018-06-30T07:59:28.677Z,36.73
2018-06-30T08:01:57.954Z,36.12
2018-06-30T08:04:27.275Z,36.06
2018-06-30T08:06:56.544Z,34.73
2018-06-30T08:09:25.855Z,35.25
2018-06-30T08:11:55.128Z,34.42
2018-06-30T08:14:24.420Z,35.84
2018-06-30T08:16:53.645Z,36.27
2018-06-30T08:19:23.096Z,35.12
2018-06-30T08:21:52.344Z,35.35
2018-06-30T08:24:21.454Z,35.71
2018-06-30T08:26:50.734Z,36.69
2018-06-30T08:29:19.956Z,36.69
2018-06-30T08:31:49.359Z,36.54
2018-06-30T08:34:18.914Z,37.03
2018-06-30T08:36:48.168Z,37.17
2018-06-30T08:39:17.887Z,36.56
2018-06-30T08:41:47.135Z,35.13
2018-06-30T08:44:16.398Z,33.50
2018-06-30T08:46:45.667Z,34.70
2018-06-30T08:49:14.984Z,35.15
2018-06-30T08:51:44.254Z,35.44
2018-06-30T08:54:13.506Z,34.46
2018-06-30T08:56:42.750Z,34.53
2018-06-30T08:59:11.990Z,34.21
2018-06-30T09:01:41.352Z,34.01
2018-06-30T09:04:10.596Z,34.99
2018-06-30T09:06:39.925Z,34.97
2018-06-30T09:09:10.577Z,33.56
2018-06-30T09:11:39.986Z,32.68
2018-06-30T09:14:09.390Z,33.37
2018-06-30T09:16:40.596Z,32.44
2018-06-30T09:19:09.826Z,33.97
2018-06-30T09:21:39.146Z,33.04
2018-06-30T09:24:08.541Z,32.28
2018-06-30T09:26:38.026Z,29.43
2018-06-30T09:29:07.268Z,30.42
2018-06-30T09:31:36.574Z,30.56
2018-06-30T09:34:06.034Z,31.08
2018-06-30T09:36:35.397Z,30.92
2018-06-30T09:39:06.356Z,31.59
2018-06-30T09:41:35.717Z,31.25
2018-06-30T09:44:05.297Z,30.37
2018-06-30T09:46:34.611Z,31.04
2018-06-30T09:49:04.401Z,31.30
2018-06-30T09:51:33.699Z,31.64
2018-06-30T09:54:02.990Z,31.43
2018-06-30T09:56:32.239Z,30.89
2018-06-30T09:59:01.487Z,30.67
2018-06-30T10:01:30.740Z,29.93
2018-06-30T10:03:59.985Z,29.78
2018-06-30T10:06:29.238Z,29.19
2018-06-30T10:08:58.496Z,28.74
2018-06-30T10:11:27.737Z,29.79
2018-06-30T10:13:56.986Z,29.13
2018-06-30T10:16:26.213Z,28.94
2018-06-30T10:18:55.393Z,30.16
2018-06-30T10:21:24.634Z,29.29
2018-06-30T10:23:53.978Z,28.68
2018-06-30T10:26:23.217Z,28.13
2018-06-30T10:28:52.624Z,28.73
2018-06-30T10:31:21.961Z,29.36
2018-06-30T10:33:51.333Z,26.84
2018-06-30T10:36:20.631Z,28.95
2018-06-30T10:38:50.059Z,28.80
2018-06-30T10:41:19.314Z,28.11
2018-06-30T10:43:48.543Z,27.66
2018-06-30T10:46:17.939Z,27.44
2018-06-30T10:48:47.346Z,29.18
2018-06-30T10:51:16.607Z,27.75
2018-06-30T10:53:45.946Z,26.84
2018-06-30T10:56:15.204Z,26.94
2018-06-30T10:58:44.656Z,27.26
2018-06-30T11:01:13.908Z,26.97
2018-06-30T11:03:43.357Z,26.75
2018-06-30T11:06:12.657Z,25.96
2018-06-30T11:08:41.930Z,26.45
2018-06-30T11:11:11.200Z,27.57
2018-06-30T11:13:40.467Z,28.44
2018-06-30T11:16:09.711Z,26.62
2018-06-30T11:18:39.045Z,26.82
2018-06-30T11:21:08.356Z,26.19
2018-06-30T11:23:37.759Z,25.98
2018-06-30T11:26:07.116Z,26.29
2018-06-30T11:28:36.375Z,24.54
2018-06-30T11:31:05.633Z,26.17
2018-06-30T11:33:34.965Z,26.54
2018-06-30T11:36:04.227Z,28.31
2018-06-30T11:38:33.473Z,28.42
2018-06-30T11:41:02.722Z,27.94
2018-06-30T11:43:31.926Z,28.08
2018-06-30T11:46:01.293Z,28.41
2018-06-30T11:48:30.502Z,26.99
2018-06-30T11:50:59.765Z,28.25
2018-06-30T11:53:29.225Z,27.89
2018-06-30T11:55:58.445Z,26.29
2018-06-30T11:58:27.706Z,27.33
2018-06-30T12:00:56.954Z,26.18
2018-06-30T12:03:26.290Z,26.21
2018-06-30T12:05:55.678Z,26.93
2018-06-30T12:08:25.009Z,28.21
2018-06-30T12:10:54.354Z,27.14
2018-06-30T12:13:23.715Z,27.71
2018-06-30T12:15:53.081Z,27.15
2018-06-30T12:18:22.423Z,26.34
2018-06-30T12:20:51.682Z,26.20
2018-06-30T12:23:20.934Z,24.07
2018-06-30T12:25:50.200Z,24.09
2018-06-30T12:28:19.474Z,26.49
2018-06-30T12:30:48.975Z,26.61
2018-06-30T12:33:18.223Z,25.79
2018-06-30T12:35:47.466Z,26.79
2018-06-30T12:38:16.722Z,27.18
2018-06-30T12:40:46.082Z,26.90
2018-06-30T12:43:15.452Z,27.20
2018-06-30T12:45:44.943Z,27.77
2018-06-30T12:48:14.135Z,27.73
2018-06-30T12:50:43.376Z,25.51
2018-06-30T12:53:12.649Z,24.41
2018-06-30T12:55:41.894Z,26.11
2018-06-30T12:58:11.129Z,27.35
2018-06-30T13:00:40.359Z,27.76
2018-06-30T13:03:09.545Z,25.64
2018-06-30T13:05:38.883Z,28.04
2018-06-30T13:08:08.145Z,27.43
2018-06-30T13:10:37.335Z,27.06
2018-06-30T13:13:06.571Z,28.39
2018-06-30T13:15:35.914Z,27.87
2018-06-30T13:18:05.392Z,28.90
2018-06-30T13:20:34.682Z,26.77
2018-06-30T13:23:04.236Z,26.65
2018-06-30T13:25:33.999Z,26.38
2018-06-30T13:28:03.300Z,27.19
2018-06-30T13:30:32.970Z,27.61
2018-06-30T13:33:02.219Z,27.63
2018-06-30T13:35:31.577Z,25.61
2018-06-30T13:38:00.925Z,26.85
2018-06-30T13:40:30.194Z,26.18
2018-06-30T13:42:59.544Z,26.39
2018-06-30T13:45:28.822Z,26.09
2018-06-30T13:47:58.119Z,26.44
2018-06-30T13:50:27.530Z,25.92
2018-06-30T13:52:56.933Z,25.74
2018-06-30T13:55:26.224Z,24.85
2018-06-30T13:57:55.547Z,26.70
2018-06-30T14:00:24.821Z,25.40
2018-06-30T14:02:54.223Z,26.13
2018-06-30T14:05:23.505Z,25.54
2018-06-30T14:07:52.950Z,25.64
2018-06-30T14:10:22.209Z,24.16
2018-06-30T14:12:51.654Z,25.11
2018-06-30T14:15:20.997Z,25.82
2018-06-30T14:17:50.245Z,25.65
2018-06-30T14:20:19.502Z,25.02
2018-06-30T14:22:48.798Z,25.40
2018-06-30T14:25:17.997Z,26.07
2018-06-30T14:27:47.254Z,23.70
2018-06-30T14:30:16.731Z,23.70
2018-06-30T14:32:45.967Z,24.32
2018-06-30T14:35:15.213Z,24.36
2018-06-30T14:37:44.576Z,24.15
2018-06-30T14:40:13.837Z,24.24
2018-06-30T14:42:43.094Z,24.29
2018-06-30T14:45:12.340Z,24.03
2018-06-30T14:47:41.596Z,24.82
2018-06-30T14:50:10.809Z,24.91
2018-06-30T14:52:40.084Z,25.02
2018-06-30T14:55:09.410Z,23.62
2018-06-30T14:57:38.596Z,24.78
2018-06-30T15:00:10.031Z,24.13
2018-06-30T15:02:39.806Z,24.02
2018-06-30T15:05:12.078Z,24.14
2018-06-30T15:07:42.033Z,23.09
2018-06-30T15:10:12.510Z,23.31
2018-06-30T15:12:42.893Z,23.73
2018-06-30T15:15:12.516Z,23.72
2018-06-30T15:17:42.184Z,23.76
2018-06-30T15:20:11.647Z,24.26
2018-06-30T15:22:41.218Z,23.67
2018-06-30T15:25:10.862Z,23.33
2018-06-30T15:27:40.234Z,24.29
2018-06-30T15:30:10.272Z,23.53
2018-06-30T15:32:39.640Z,23.85
2018-06-30T15:35:09.107Z,21.43
2018-06-30T15:37:39.631Z,23.45
2018-06-30T15:40:09.654Z,22.95
2018-06-30T15:42:38.901Z,22.74
2018-06-30T15:45:09.514Z,22.21
2018-06-30T15:47:39.253Z,20.77
2018-06-30T15:50:08.692Z,21.57
2018-06-30T15:52:37.997Z,22.38
2018-06-30T15:55:07.904Z,22.35
2018-06-30T15:57:37.232Z,23.31
2018-06-30T16:00:07.096Z,22.52
2018-06-30T16:02:36.430Z,21.82
2018-06-30T16:05:05.679Z,22.06
2018-06-30T16:07:34.910Z,22.95
2018-06-30T16:10:04.268Z,22.98
2018-06-30T16:12:33.546Z,23.51
2018-06-30T16:15:02.809Z,22.35
2018-06-30T16:17:32.130Z,22.16
2018-06-30T16:20:01.369Z,21.73
2018-06-30T16:22:30.729Z,21.83
2018-06-30T16:24:59.976Z,22.06
2018-06-30T16:27:29.222Z,20.43
2018-06-30T16:29:58.504Z,20.49
2018-06-30T16:32:27.819Z,21.49
2018-06-30T16:34:57.063Z,20.76
2018-06-30T16:37:26.314Z,20.50
2018-06-30T16:39:55.626Z,20.84
2018-06-30T16:42:25.026Z,21.77
2018-06-30T16:44:54.295Z,20.70
2018-06-30T16:47:23.935Z,21.11
2018-06-30T16:49:53.346Z,21.89
2018-06-30T16:52:22.634Z,22.31
2018-06-30T16:54:52.248Z,21.40
2018-06-30T16:57:21.710Z,20.83
2018-06-30T16:59:50.922Z,21.02
2018-06-30T17:02:20.158Z,21.24
2018-06-30T17:04:49.516Z,21.37
2018-06-30T17:07:18.749Z,20.34
2018-06-30T17:09:48.035Z,21.40
2018-06-30T17:12:17.387Z,21.02
2018-06-30T17:14:46.608Z,21.42
2018-06-30T17:17:15.803Z,21.73
2018-06-30T17:19:45.038Z,23.22
2018-06-30T17:22:14.400Z,22.43
2018-06-30T17:24:43.853Z,23.04
2018-06-30T17:27:13.114Z,21.92
2018-06-30T17:29:42.510Z,21.99
2018-06-30T17:32:11.725Z,22.55
2018-06-30T17:34:40.976Z,21.77
2018-06-30T17:37:10.218Z,22.17
2018-06-30T17:39:39.485Z,22.40
2018-06-30T17:42:08.794Z,21.85
2018-06-30T17:44:37.822Z,21.46
2018-06-30T17:47:07.000Z,21.35
2018-06-30T17:49:36.260Z,21.95
2018-06-30T17:52:05.490Z,21.43
2018-06-30T17:54:34.735Z,21.04
2018-06-30T17:57:04.095Z,20.15
2018-06-30T17:59:33.356Z,21.59
2018-06-30T18:02:02.824Z,21.69
2018-06-30T18:04:32.133Z,21.49
2018-06-30T18:07:01.407Z,20.96
2018-06-30T18:09:30.631Z,20.73
2018-06-30T18:11:59.809Z,21.74
2018-06-30T18:14:31.924Z,22.41
2018-06-30T18:17:01.173Z,22.21
2018-06-30T18:19:30.413Z,21.97
2018-06-30T18:21:59.685Z,22.27
2018-06-30T18:24:29.004Z,22.16
2018-06-30T18:26:58.315Z,21.97
2018-06-30T18:29:27.622Z,22.53
2018-06-30T18:31:56.882Z,21.66
2018-06-30T18:34:26.214Z,21.36
2018-06-30T18:36:55.418Z,23.24
2018-06-30T18:39:24.772Z,23.31
2018-06-30T18:41:53.973Z,24.81
2018-06-30T18:44:23.198Z,25.98
2018-06-30T18:46:52.513Z,24.66
2018-06-30T18:49:21.794Z,25.92
2018-06-30T18:51:51.115Z,24.99
2018-06-30T18:54:20.406Z,25.21
2018-06-30T18:56:49.743Z,25.81
2018-06-30T18:59:19.103Z,25.13
2018-06-30T19:01:48.342Z,25.55
2018-06-30T19:04:17.578Z,25.34
2018-06-30T19:06:47.036Z,24.76
2018-06-30T19:09:16.289Z,23.15
2018-06-30T19:11:45.527Z,23.78
2018-06-30T19:14:14.783Z,22.56
2018-06-30T19:16:44.135Z,20.80
2018-06-30T19:19:13.589Z,21.13
2018-06-30T19:21:42.941Z,20.91
2018-06-30T19:24:12.226Z,21.43
2018-06-30T19:26:41.675Z,22.40
2018-06-30T19:29:11.025Z,22.71
2018-06-30T19:31:40.453Z,23.66
2018-06-30T19:34:09.709Z,24.59
2018-06-30T19:36:39.003Z,23.48
2018-06-30T19:39:10.019Z,23.83
2018-06-30T19:41:39.283Z,24.37
2018-06-30T19:44:08.550Z,23.91
2018-06-30T19:46:37.767Z,23.83
2018-06-30T19:49:07.223Z,23.37
2018-06-30T19:51:36.465Z,23.39
2018-06-30T19:54:05.761Z,22.62
2018-06-30T19:56:35.090Z,22.63
2018-06-30T19:59:04.441Z,22.70
2018-06-30T20:01:33.680Z,23.17
2018-06-30T20:04:02.931Z,22.32
2018-06-30T20:06:32.178Z,23.04
2018-06-30T20:09:01.422Z,22.81
2018-06-30T20:11:31.157Z,22.22
2018-06-30T20:14:00.744Z,22.70
2018-06-30T20:16:30.718Z,23.06
2018-06-30T20:19:00.665Z,22.63
2018-06-30T20:21:30.399Z,22.47
2018-06-30T20:24:00.367Z,22.43
2018-06-30T20:26:29.609Z,22.02
2018-06-30T20:28:58.863Z,22.82
2018-06-30T20:31:28.108Z,22.97
2018-06-30T20:33:57.459Z,21.91
2018-06-30T20:36:26.663Z,21.99
2018-06-30T20:38:55.953Z,22.50
2018-06-30T20:41:25.194Z,23.03
2018-06-30T20:43:54.452Z,22.48
2018-06-30T20:46:23.694Z,23.72
2018-06-30T20:48:52.963Z,21.92
2018-06-30T20:51:23.498Z,21.54
2018-06-30T20:53:53.296Z,21.80
2018-06-30T20:56:22.627Z,22.99
2018-06-30T20:58:51.915Z,22.90
2018-06-30T21:01:21.179Z,22.74
2018-06-30T21:03:50.600Z,21.87
2018-06-30T21:06:19.837Z,22.72
2018-06-30T21:08:49.194Z,21.71
2018-06-30T21:11:18.445Z,21.65
2018-06-30T21:13:47.813Z,21.44
2018-06-30T21:16:17.094Z,21.38
2018-06-30T21:18:46.427Z,23.30
2018-06-30T21:21:15.749Z,22.42
2018-06-30T21:23:44.987Z,21.35
2018-06-30T21:26:14.314Z,22.20
2018-06-30T21:28:43.616Z,21.18
2018-06-30T21:31:12.871Z,21.14
2018-06-30T21:33:42.195Z,21.72
2018-06-30T21:36:11.507Z,21.11
2018-06-30T21:38:40.926Z,21.16
2018-06-30T21:41:10.413Z,21.60
2018-06-30T21:43:39.686Z,21.68
2018-06-30T21:46:09.005Z,20.93
2018-06-30T21:48:38.282Z,20.91
2018-06-30T21:51:07.515Z,21.39
2018-06-30T21:53:36.782Z,21.00
2018-06-30T21:56:06.297Z,21.65
2018-06-30T21:58:35.593Z,21.70
2018-06-30T22:01:09.849Z,21.68
2018-06-30T22:03:39.235Z,21.14
2018-06-30T22:06:08.457Z,21.38
2018-06-30T22:08:37.683Z,21.42
2018-06-30T22:11:06.977Z,21.10
2018-06-30T22:13:36.185Z,21.54
2018-06-30T22:16:05.547Z,21.57
2018-06-30T22:18:34.843Z,20.81
2018-06-30T22:21:04.241Z,21.36
2018-06-30T22:23:33.535Z,21.59
2018-06-30T22:26:02.953Z,21.73
2018-06-30T22:28:32.221Z,21.59
2018-06-30T22:31:01.454Z,21.74
2018-06-30T22:33:30.723Z,22.21
2018-06-30T22:35:59.943Z,21.90
2018-06-30T22:38:29.244Z,22.28
2018-06-30T22:40:58.530Z,22.11
2018-06-30T22:43:27.703Z,22.26
2018-06-30T22:45:56.923Z,22.04
2018-06-30T22:48:26.230Z,22.22
2018-06-30T22:50:55.594Z,22.58
2018-06-30T22:53:24.832Z,22.74
2018-06-30T22:55:53.990Z,23.31
2018-06-30T22:58:23.217Z,23.28
2018-06-30T23:00:52.396Z,23.75
2018-06-30T23:03:21.613Z,24.01
2018-06-30T23:05:50.685Z,24.18
2018-06-30T23:08:20.022Z,23.44
2018-06-30T23:10:49.501Z,23.47
2018-06-30T23:13:18.727Z,23.99
2018-06-30T23:15:48.034Z,24.11
2018-06-30T23:18:17.459Z,24.13
2018-06-30T23:20:46.836Z,24.14
2018-06-30T23:23:16.143Z,24.12
2018-06-30T23:25:45.559Z,24.39
2018-06-30T23:28:14.864Z,24.42
2018-06-30T23:30:44.084Z,24.65
2018-06-30T23:33:13.348Z,24.81
2018-06-30T23:35:42.739Z,24.27
2018-06-30T23:38:12.037Z,24.23
2018-06-30T23:40:41.294Z,24.56
2018-06-30T23:43:11.239Z,24.10
2018-06-30T23:45:40.979Z,23.95
2018-06-30T23:48:10.382Z,24.69
2018-06-30T23:50:39.754Z,24.97
2018-06-30T23:53:09.106Z,25.01
2018-06-30T23:55:38.354Z,25.16
2018-06-30T23:58:07.554Z,25.43
